createdAt,value
2022-10-29T00:00:27.259Z,10.30
2022-10-29T00:05:29.699Z,10.73
2022-10-29T00:10:32.259Z,11.30
2022-10-29T00:15:34.580Z,7.97
2022-10-29T00:20:36.977Z,12.33
2022-10-29T00:25:39.385Z,8.13
2022-10-29T00:30:41.704Z,9.30
2022-10-29T00:35:54.275Z,10.23
2022-10-29T00:40:56.629Z,13.10
2022-10-29T00:46:27.293Z,8.97
2022-10-29T00:51:32.538Z,10.00
2022-10-29T00:56:42.161Z,6.30
2022-10-29T01:01:47.064Z,8.70
2022-10-29T01:06:50.108Z,9.50
2022-10-29T01:12:17.086Z,6.93
2022-10-29T01:17:42.737Z,8.47
2022-10-29T01:22:54.361Z,8.97
2022-10-29T01:28:08.726Z,9.57
2022-10-29T01:33:36.483Z,7.37
2022-10-29T01:39:03.273Z,10.10
2022-10-29T01:44:26.910Z,7.27
2022-10-29T01:49:35.633Z,7.73
2022-10-29T01:54:43.255Z,6.23
2022-10-29T01:59:55.522Z,9.00
2022-10-29T02:05:18.164Z,7.50
2022-10-29T02:10:32.651Z,7.13
2022-10-29T02:15:36.842Z,8.03
2022-10-29T02:20:43.515Z,8.50
2022-10-29T02:25:45.947Z,11.70
2022-10-29T02:30:48.423Z,9.60
2022-10-29T02:35:50.944Z,7.20
2022-10-29T02:40:53.386Z,8.37
2022-10-29T02:46:31.529Z,9.93
2022-10-29T02:51:34.163Z,5.53
2022-10-29T02:56:36.527Z,8.30
2022-10-29T03:01:38.998Z,14.43
2022-10-29T03:06:41.570Z,8.57
2022-10-29T03:17:00.141Z,8.37
2022-10-29T03:22:02.529Z,6.13
2022-10-29T03:27:04.994Z,7.33
2022-10-29T03:32:07.380Z,10.37
2022-10-29T03:37:09.877Z,11.63
2022-10-29T03:42:12.248Z,8.97
2022-10-29T03:47:14.553Z,8.07
2022-10-29T03:52:17.132Z,7.43
2022-10-29T03:57:19.758Z,8.10
2022-10-29T04:02:22.482Z,9.33
2022-10-29T04:07:24.932Z,9.83
2022-10-29T04:12:27.304Z,12.83
2022-10-29T04:17:29.921Z,7.70
2022-10-29T04:24:28.956Z,9.93
2022-10-29T04:33:18.551Z,11.43
2022-10-29T04:38:21.557Z,11.97
2022-10-29T04:43:23.974Z,6.33
2022-10-29T04:48:27.592Z,6.33
2022-10-29T04:53:29.976Z,6.57
2022-10-29T04:58:32.335Z,6.17
2022-10-29T05:03:34.902Z,7.87
2022-10-29T05:08:37.354Z,10.83
2022-10-29T05:13:39.766Z,7.70
2022-10-29T05:18:42.109Z,6.97
2022-10-29T05:23:44.488Z,10.10
2022-10-29T05:28:53.013Z,11.43
2022-10-29T05:33:56.078Z,9.53
2022-10-29T05:38:58.686Z,9.00
2022-10-29T05:44:01.054Z,8.73
2022-10-29T05:49:03.992Z,10.03
2022-10-29T05:54:06.548Z,8.50
2022-10-29T05:59:09.057Z,11.17
2022-10-29T06:04:11.428Z,5.33
2022-10-29T06:09:13.790Z,7.00
2022-10-29T06:14:16.112Z,6.73
2022-10-29T06:19:18.551Z,7.73
2022-10-29T06:24:21.170Z,9.37
2022-10-29T06:29:23.571Z,8.30
2022-10-29T06:34:26.005Z,9.50
2022-10-29T06:39:28.409Z,6.50
2022-10-29T06:44:30.794Z,5.80
2022-10-29T06:49:33.191Z,8.30
2022-10-29T06:54:35.543Z,7.47
2022-10-29T06:59:37.860Z,7.17
2022-10-29T07:04:40.227Z,10.43
2022-10-29T07:09:45.590Z,14.17
2022-10-29T07:14:47.952Z,7.07
2022-10-29T07:19:50.499Z,10.53
2022-10-29T07:24:54.777Z,9.20
2022-10-29T07:29:59.627Z,6.13
2022-10-29T07:35:02.053Z,10.07
2022-10-29T07:40:05.209Z,8.43
2022-10-29T07:45:07.949Z,8.90
2022-10-29T07:50:10.774Z,9.87
2022-10-29T07:55:13.148Z,8.17
2022-10-29T08:00:15.829Z,7.17
2022-10-29T08:05:18.663Z,8.50
2022-10-29T08:10:22.178Z,7.20
2022-10-29T08:15:25.818Z,8.30
2022-10-29T08:20:29.503Z,9.77
2022-10-29T08:25:31.999Z,6.30
2022-10-29T08:30:34.814Z,4.27
2022-10-29T08:35:37.231Z,11.50
2022-10-29T08:40:48.179Z,13.00
2022-10-29T08:45:54.795Z,10.00
2022-10-29T08:51:51.026Z,6.50
2022-10-29T08:56:57.958Z,6.67
2022-10-29T09:02:00.428Z,7.03
2022-10-29T09:07:28.725Z,5.80
2022-10-29T09:13:12.171Z,5.07
2022-10-29T09:18:52.527Z,4.10
2022-10-29T09:24:00.890Z,5.87
2022-10-29T09:29:15.745Z,8.53
2022-10-29T09:34:55.429Z,4.80
2022-10-29T09:39:59.207Z,6.97
2022-10-29T09:45:09.335Z,629.50
2022-10-29T09:50:33.010Z,841.57
2022-10-29T09:55:44.795Z,551.13
2022-10-29T10:00:47.207Z,473.07
2022-10-29T10:06:00.168Z,177.57
2022-10-29T10:11:06.133Z,36.37
2022-10-29T10:16:08.885Z,9.70
2022-10-29T10:21:14.133Z,5.83
2022-10-29T10:26:43.181Z,9.47
2022-10-29T10:31:46.783Z,52.00
2022-10-29T10:37:02.910Z,9.33
2022-10-29T10:42:16.304Z,8.03
2022-10-29T10:47:22.354Z,6.03
2022-10-29T10:52:31.795Z,4.17
2022-10-29T10:57:40.770Z,16.47
2022-10-29T11:02:49.575Z,366.43
2022-10-29T11:07:59.193Z,352.17
2022-10-29T11:13:06.471Z,205.70
2022-10-29T11:18:35.302Z,21.27
2022-10-29T11:24:05.594Z,14.20
2022-10-29T11:29:22.899Z,6.18
2022-10-29T11:34:36.229Z,229.52
2022-10-29T11:39:48.230Z,11.45
2022-10-29T11:44:51.496Z,39.65
2022-10-29T11:50:09.346Z,3.13
2022-10-29T11:55:35.897Z,5.60
2022-10-29T12:01:11.264Z,10.27
2022-10-29T12:06:31.130Z,39.53
2022-10-29T12:12:02.814Z,13.97
2022-10-29T12:17:21.049Z,44.73
2022-10-29T12:22:33.387Z,40.37
2022-10-29T12:28:07.269Z,52.37
2022-10-29T12:33:27.533Z,7.50
2022-10-29T12:38:36.382Z,24.63
2022-10-29T12:43:40.969Z,13.20
2022-10-29T12:48:52.448Z,8.90
2022-10-29T12:54:15.416Z,2.03
2022-10-29T12:59:33.120Z,59.93
2022-10-29T13:04:35.551Z,10.47
2022-10-29T13:09:38.357Z,42.80
2022-10-29T13:14:55.665Z,3.17
2022-10-29T13:20:19.387Z,7.83
2022-10-29T13:25:46.483Z,33.90
2022-10-29T13:30:54.225Z,7.13
2022-10-29T13:36:00.243Z,8.83
2022-10-29T13:41:23.765Z,9.00
2022-10-29T13:46:34.872Z,10.37
2022-10-29T13:51:52.544Z,8.17
2022-10-29T13:57:12.160Z,14.83
2022-10-29T14:02:19.706Z,8.37
2022-10-29T14:07:30.164Z,14.20
2022-10-29T14:12:33.967Z,12.77
2022-10-29T14:17:36.421Z,5.37
2022-10-29T14:22:40.796Z,5.13
2022-10-29T14:27:43.151Z,7.57
2022-10-29T14:32:46.450Z,10.23
2022-10-29T14:37:49.715Z,9.47
2022-10-29T14:42:55.792Z,12.13
2022-10-29T14:48:08.999Z,8.07
2022-10-29T14:53:34.537Z,12.60
2022-10-29T14:58:38.235Z,8.43
2022-10-29T15:03:40.613Z,8.93
2022-10-29T15:08:45.617Z,9.37
2022-10-29T15:13:47.959Z,11.03
2022-10-29T15:18:53.074Z,6.20
2022-10-29T15:24:08.282Z,9.90
2022-10-29T15:29:12.063Z,6.20
2022-10-29T15:34:20.921Z,12.30
2022-10-29T15:39:50.448Z,4.33
2022-10-29T15:45:08.091Z,7.20
2022-10-29T15:50:19.903Z,10.93
2022-10-29T15:55:42.889Z,12.53
2022-10-29T16:00:45.664Z,6.53
2022-10-29T16:05:51.134Z,3.07
2022-10-29T16:10:54.355Z,4.97
2022-10-29T16:15:56.820Z,3.97
2022-10-29T16:21:02.689Z,4.30
2022-10-29T16:26:05.536Z,8.63
2022-10-29T16:31:26.122Z,10.23
2022-10-29T16:36:28.477Z,6.90
2022-10-29T16:41:33.253Z,22.60
2022-10-29T16:46:35.621Z,7.70
2022-10-29T16:51:38.032Z,6.17
2022-10-29T16:56:43.040Z,13.30
2022-10-29T17:01:47.176Z,12.43
2022-10-29T17:06:50.020Z,38.97
2022-10-29T17:11:52.542Z,226.77
2022-10-29T17:16:54.950Z,34.53
2022-10-29T17:21:58.898Z,15.63
2022-10-29T17:27:01.263Z,5.83
2022-10-29T17:37:27.981Z,14.73
2022-10-29T17:42:31.242Z,14.43
2022-10-29T17:47:33.673Z,18.03
2022-10-29T17:52:36.126Z,10.17
2022-10-29T17:57:38.539Z,15.43
2022-10-29T18:02:41.084Z,29.73
2022-10-29T18:07:43.669Z,22.63
2022-10-29T18:12:46.062Z,27.57
2022-10-29T18:17:48.526Z,89.20
2022-10-29T18:22:55.543Z,248.70
2022-10-29T18:27:58.411Z,164.03
2022-10-29T18:33:01.365Z,124.40
2022-10-29T18:38:04.062Z,28.10
2022-10-29T18:43:06.452Z,68.97
2022-10-29T18:48:09.150Z,14.63
2022-10-29T18:53:11.640Z,76.83
2022-10-29T18:58:14.237Z,62.07
2022-10-29T19:03:17.143Z,41.17
2022-10-29T19:08:19.516Z,23.83
2022-10-29T19:13:22.468Z,14.37
2022-10-29T19:18:24.845Z,18.90
2022-10-29T19:23:27.201Z,20.07
2022-10-29T19:28:30.732Z,688.77
2022-10-29T19:33:33.519Z,51.30
2022-10-29T19:38:36.332Z,18.30
2022-10-29T19:43:39.753Z,17.73
2022-10-29T19:48:42.464Z,52.53
2022-10-29T19:53:45.166Z,22.13
2022-10-29T19:58:47.678Z,180.77
2022-10-29T20:03:50.105Z,57.83
2022-10-29T20:08:52.739Z,15.20
2022-10-29T20:13:55.145Z,16.03
2022-10-29T20:18:57.778Z,14.67
2022-10-29T20:24:00.154Z,14.70
2022-10-29T20:29:02.506Z,56.50
2022-10-29T20:34:04.916Z,16.87
2022-10-29T20:39:07.463Z,14.63
2022-10-29T20:44:10.152Z,15.67
2022-10-29T20:49:12.537Z,14.57
2022-10-29T20:54:14.903Z,17.43
2022-10-29T20:59:17.299Z,13.70
2022-10-29T21:04:19.695Z,20.67
2022-10-29T21:09:22.946Z,14.30
2022-10-29T21:14:27.514Z,14.70
2022-10-29T21:19:29.920Z,11.77
2022-10-29T21:24:32.262Z,13.63
2022-10-29T21:29:34.623Z,12.77
2022-10-29T21:34:37.474Z,12.23
2022-10-29T21:39:39.925Z,16.77
2022-10-29T21:44:42.385Z,14.63
2022-10-29T21:49:51.730Z,14.30
2022-10-29T21:54:54.690Z,12.97
2022-10-29T21:59:57.046Z,13.60
2022-10-29T22:04:59.396Z,13.30
2022-10-29T22:10:02.040Z,11.43
2022-10-29T22:15:05.295Z,12.40
2022-10-29T22:20:08.098Z,12.13
2022-10-29T22:25:10.757Z,12.90
2022-10-29T22:30:13.269Z,13.30
2022-10-29T22:35:17.074Z,13.90
2022-10-29T22:40:19.500Z,11.50
2022-10-29T22:45:22.142Z,14.10
2022-10-29T22:50:24.812Z,14.67
2022-10-29T22:55:27.202Z,19.20
2022-10-29T23:00:29.645Z,16.97
2022-10-29T23:05:32.013Z,13.27
2022-10-29T23:10:34.557Z,13.87
2022-10-29T23:15:36.938Z,16.57
2022-10-29T23:20:39.301Z,16.83
2022-10-29T23:25:42.353Z,19.83
2022-10-29T23:30:52.051Z,28.93
2022-10-29T23:35:54.736Z,14.43
2022-10-29T23:40:57.115Z,13.33
2022-10-29T23:45:59.547Z,11.57
2022-10-29T23:51:02.067Z,15.83
2022-10-29T23:56:05.048Z,16.07
